Hurup, Denmark

12:52 AM CET on February 07, 2016 (GMT +0100)
Lemvig | | Change Station
CLOSE
Current Station
Personal Weather Station
Location: Lemvig,
Elevation: 82 ft
Nearby Weather Stations

Elev 82 ft 56.55 °N, 8.24 °E | Updated 2 minutes ago

Mostly Cloudy
Mostly Cloudy
46.2 °F
Feels Like 38 °F
N
24.0
Wind Variable Wind from SE
Gusts 25.0 mph

Today
High -- | Low -- °F
--% Chance of Precip.
Yesterday
High -- | Low -- °F
Precip. -- in
Pressure 29.44 in
Visibility 6.2 miles
Clouds Mostly Cloudy 4800 ft
Windchill 38 °F
Dew Point 43 °F
Humidity 89%
Rainfall 0.00 in
Snow Depth Not available.
8:13 AM 5:08 PM
Waning Crescent, 3% visible
METAR EKKA 062350Z AUTO 18011KT 150V210 9999NDV BKN048/// 08/05 Q0997
Pressure 29.44 in
Visibility 6.2 miles
Clouds Mostly Cloudy 4800 ft
Windchill 38 °F
Dew Point 43 °F
Humidity 89%
Rainfall 0.00 in
Snow Depth Not available.
8:13 AM 5:08 PM
Waning Crescent, 3% visible
METAR EKKA 062350Z AUTO 18011KT 150V210 9999NDV BKN048/// 08/05 Q0997

10-Day Weather Forecast

Almanac

Astronomy

Feb. 07, 2016 Rise Set
Actual Time
Civil Twilight
Nautical Twilight
Astronomical Twilight
Moon
Length of Visible Light
Length of Day
Tomorrow will be .
, % of the Moon is Illuminated

Today's Extremes

Country Highs Country Lows

Community

WunderPhotos

Upload Photos

1,891,098 photos uploaded!

WunderBlog® & News

Nearby

Air Quality

  Air Quality AQ Index Pollutant
Not available.

Snow Depth

Station Depth Elevation

Earthquake Activity

City Distance Mag. Time & Date
Minimum magnitude displayed is 2.5.

Coastal Water Temperatures

Place Temperature

Stations

Nearby Weather Stations

Station Location Temp. Windchill Dew Point Humidity Wind Precip. Elev Updated Type